Flight Track Log - Related Links

Times and Time Zones

All times are in EDT time to prevent confusion due to time zone crossing. See the FLG3757 flight status page for this flight to view local times or setup timezone preferences in your user account.

Time Position Orientation Groundspeed Altitude Reporting Facility
EDT Latitude Longitude Course Direction KTS MPH feet Rate Location/Type
Tue 06:17:19 AM 42.1589 -76.0750 294° West 251 289 6,300  Level New York Center
Tue 06:18:26 AM 42.1881 -76.1794 291° West 266 306 6,300  Level Cleveland Center
Tue 06:19:27 AM 42.2164 -76.2672 294° West 258 297 6,300  Level Cleveland Center
Tue 06:20:28 AM 42.2469 -76.3633 293° West 274 315 6,300  Level Cleveland Center
Tue 06:21:29 AM 42.2744 -76.4647 290° West 290 334 6,300  Level Cleveland Center
Tue 06:22:00 AM 42.3493 -76.5145 294° West  Level FlightAware Approximate
Tue 06:22:54 AM 42.3464 -76.6644 296° West 359 413 6,300  Level Cleveland Center
Tue 06:23:55 AM 42.3814 -76.7833 292° West 350 403 17,200 6,492 Climbing Cleveland Center
Tue 06:24:56 AM 42.4169 -76.8986 293° West 339 390 19,500 1,525 Climbing Cleveland Center
Tue 06:25:57 AM 42.4511 -77.0119 292° West 326 375 20,300 689 Climbing Cleveland Center
Tue 06:26:58 AM 42.4858 -77.1375 291° West 352 405 20,900 590 Climbing Cleveland Center
Tue 06:27:59 AM 42.4950 -77.2750 275° West 360 414 21,500 590 Climbing Cleveland Center
Tue 06:29:00 AM 42.5050 -77.4161 276° West 371 427 22,100 639 Climbing Cleveland Center
Tue 06:30:01 AM 42.5169 -77.5775 276° West 380 437 22,800 639 Climbing Cleveland Center
Tue 06:31:02 AM 42.5275 -77.7228 276° West 384 442 23,400 590 Climbing Cleveland Center
Tue 06:32:03 AM 42.5372 -77.8567 276° West 384 442 24,000 590 Climbing Cleveland Center
Tue 06:33:04 AM 42.5478 -78.0019 276° West 384 442 24,600 590 Climbing Cleveland Center
Tue 06:34:05 AM 42.5569 -78.1456 275° West 384 442 25,200 590 Climbing Cleveland Center
Tue 06:35:06 AM 42.5664 -78.2886 275° West 383 441 25,800 393 Climbing Cleveland Center
Tue 06:36:07 AM 42.5767 -78.4311 276° West 382 440 26,000 98 Climbing Cleveland Center
Tue 06:37:08 AM 42.5861 -78.5794 275° West 396 456 26,000  Level Cleveland Center
Tue 06:38:09 AM 42.5972 -78.7597 275° West 400 460 26,000  Level Cleveland Center
Tue 06:39:10 AM 42.6058 -78.9097 275° West 400 460 26,000  Level Cleveland Center
Tue 06:40:12 AM 42.6156 -79.0611 275° West 402 463 26,000  Level Cleveland Center
Tue 06:41:13 AM 42.6236 -79.2125 274° West 402 463 26,000  Level Cleveland Center
Tue 06:42:14 AM 42.6333 -79.3625 275° West 402 463 26,000  Level Cleveland Center
Tue 06:43:15 AM 42.6358 -79.5128 271° West 401 461 26,000  Level Cleveland Center
Tue 06:44:16 AM 42.6317 -79.6642 268° West 400 460 26,000  Level Cleveland Center
Tue 06:45:18 AM 42.6269 -79.8136 268° West 400 460 26,000  Level Cleveland Center
Tue 06:46:19 AM 42.6219 -79.9639 267° West 400 460 26,000  Level Cleveland Center
Tue 06:47:20 AM 42.6153 -80.1169 267° West 400 460 26,000  Level Cleveland Center
Tue 06:48:21 AM 42.6089 -80.2950 267° West 401 461 26,000  Level Cleveland Center
Tue 06:49:23 AM 42.6039 -80.4483 268° West 402 463 26,000  Level Cleveland Center
Tue 06:50:24 AM 42.5978 -80.6022 267° West 403 464 26,000  Level Cleveland Center
Tue 06:51:25 AM 42.5939 -80.7586 268° West 408 470 26,000 -634 Level Cleveland Center
Tue 06:52:27 AM 42.5872 -80.9144 267° West 411 473 24,700 -1,122 Descending Cleveland Center
Tue 06:53:28 AM 42.5803 -81.0717 267° West 414 476 23,700 -984 Descending Cleveland Center
Tue 06:54:29 AM 42.5742 -81.2208 267° West 401 461 22,700 -829 Descending Cleveland Center
Tue 06:55:31 AM 42.5672 -81.3692 266° West 397 457 22,000 -341 Descending Cleveland Center
Tue 06:56:32 AM 42.5611 -81.5156 267° West 391 450 22,000  Level Cleveland Center
Tue 06:57:34 AM 42.5536 -81.6625 266° West 389 448 22,000  Level Cleveland Center
Tue 06:58:35 AM 42.5472 -81.8122 267° West 389 448 22,000 -590 Level Cleveland Center
Tue 06:59:36 AM 42.5400 -81.9594 266° West 389 448 20,800 -1,756 Descending Cleveland Center
Tue 07:00:38 AM 42.5322 -82.1022 266° West 383 441 18,400 -2,683 Descending Cleveland Center
Tue 07:01:39 AM 42.5244 -82.2622 266° West 358 412 15,300 -3,000 Descending Cleveland Center
Tue 07:02:02 AM 42.5217 -82.3164 266° West 346 398 14,200 -2,667 Descending Cleveland Center
Tue 07:02:15 AM 42.5197 -82.3444 265° West 345 397 13,700 -2,308 Descending Cleveland Center
Tue 07:02:41 AM 42.5172 -82.3906 266° West 346 398 12,700 -1,770 Descending Cleveland Center
Tue 07:03:16 AM 42.5136 -82.4653 266° West 316 364 11,900 -787 Descending Cleveland Center
Tue 07:03:42 AM 42.5114 -82.5064 266° West 315 362 11,900 -200 Level Cleveland Center
Tue 07:04:16 AM 42.5003 -82.5653 256° West 257 296 11,700 -581 Descending Cleveland Center
Tue 07:04:44 AM 42.4900 -82.5989 247° West 269 310 11,300 -984 Descending Cleveland Center
Tue 07:05:17 AM 42.4689 -82.6547 243° Southwest 256 295 10,700 -984 Descending Cleveland Center
Tue 07:05:45 AM 42.4594 -82.6831 246° West 256 295 10,300 -985 Descending Cleveland Center
Tue 07:06:24 AM 42.4369 -82.7467 244° Southwest 252 290 9,600 -968 Descending Cleveland Center
Tue 07:06:47 AM 42.4283 -82.7692 243° Southwest 255 293 9,300 -1,091 Descending Cleveland Center
Tue 07:07:30 AM 42.4106 -82.8506 254° West 262 302 8,400 -984 Descending Cleveland Center
Tue 07:07:48 AM 42.4111 -82.8631 273° West 258 297 8,300 -873 Descending Cleveland Center
Tue 07:08:25 AM 42.4106 -82.9353 269° West 243 280 7,600 -968 Descending Cleveland Center
Tue 07:08:50 AM 42.4114 -82.9533 274° West 249 287 7,300 -1,279 Descending Cleveland Center
Tue 07:09:26 AM 42.4103 -83.0256 269° West 235 270 6,300 -1,258 Descending Cleveland Center
Tue 07:09:52 AM 42.4081 -83.0581 265° West 240 276 6,000 -984 Descending Cleveland Center
Tue 07:10:27 AM 42.3975 -83.1117 255° West 230 265 5,300 -1,377 Descending Cleveland Center
Tue 07:10:53 AM 42.3914 -83.1439 256° West 237 273 4,600 -1,881 Descending Cleveland Center
Tue 07:11:34 AM 42.3653 -83.2031 239° Southwest 243 280 3,200 -1,548 Descending Cleveland Center
Tue 07:11:55 AM 42.3575 -83.2239 243° Southwest 241 277 3,000 -300 Descending Cleveland Center
Tue 07:12:34 AM 42.3256 -83.2569 217° Southwest 165 190 2,900 -290 Descending Cleveland Center
Tue 07:12:57 AM 42.3169 -83.2617 202° Southwest 191 220 2,700 -787 Descending Cleveland Center
Tue 07:13:35 AM 42.2858 -83.2853 209° Southwest 162 186 2,100 -787 Descending Cleveland Center
Tue 07:13:58 AM 42.2778 -83.2917 210° Southwest 170 196 1,900 -716 Descending Cleveland Center
Tue 07:14:42 AM 42.2503 -83.3114 208° Southwest 117 135 1,300 -677 Descending Cleveland Center
Tue 07:15:00 AM 42.2464 -83.3133 200° South 140 161 1,200 -375 Descending Cleveland Center
Tue 07:16:02 AM 42.2111 -83.3417 211° Southwest 135 155 800 -387 Descending Cleveland Center
Tue 07:18:00 AM 42.2000 -83.3500 236° Southwest  Level FlightAware Approximate
Tue 07:25:00 AM 42.2124 -83.3534 236° Southwest  Level Estimated

Login

Don't have an account? Register now (free) for customized features, flight alerts, and more!